sensor_id;sensor_type;location;lat;lon;timestamp;temperature;humidity
43015;DHT22;28637;50.554;7.032;2022-08-21T10:12:24;24.00;86.20
43015;DHT22;28637;50.554;7.032;2022-08-21T10:18:08;24.00;87.10
43015;DHT22;28637;50.554;7.032;2022-08-21T10:45:10;24.30;87.30
43015;DHT22;28637;50.554;7.032;2022-08-21T10:55:23;24.30;87.40
43015;DHT22;28637;50.554;7.032;2022-08-21T11:00:50;24.30;87.60
43015;DHT22;28637;50.554;7.032;2022-08-21T11:05:55;24.40;87.70
43015;DHT22;28637;50.554;7.032;2022-08-21T11:11:20;24.40;87.70
43015;DHT22;28637;50.554;7.032;2022-08-21T11:16:40;24.40;87.80
43015;DHT22;28637;50.554;7.032;2022-08-21T11:27:06;24.40;87.80
43015;DHT22;28637;50.554;7.032;2022-08-21T11:47:05;24.70;87.70
43015;DHT22;28637;50.554;7.032;2022-08-21T12:02:29;25.50;87.50
43015;DHT22;28637;50.554;7.032;2022-08-21T12:07:37;25.80;87.40
43015;DHT22;28637;50.554;7.032;2022-08-21T12:12:41;26.00;85.80
43015;DHT22;28637;50.554;7.032;2022-08-21T12:23:16;26.00;84.60
43015;DHT22;28637;50.554;7.032;2022-08-21T12:28:23;25.90;84.10
43015;DHT22;28637;50.554;7.032;2022-08-21T12:33:26;25.80;83.90
43015;DHT22;28637;50.554;7.032;2022-08-21T12:38:50;25.60;83.70
43015;DHT22;28637;50.554;7.032;2022-08-21T12:44:02;25.40;83.70
43015;DHT22;28637;50.554;7.032;2022-08-21T12:49:14;25.40;83.80
43015;DHT22;28637;50.554;7.032;2022-08-21T12:54:36;25.50;83.90
43015;DHT22;28637;50.554;7.032;2022-08-21T12:59:39;25.60;84.20
43015;DHT22;28637;50.554;7.032;2022-08-21T13:04:41;25.60;84.50
43015;DHT22;28637;50.554;7.032;2022-08-21T13:10:06;25.50;84.60
43015;DHT22;28637;50.554;7.032;2022-08-21T13:15:11;25.50;84.90
43015;DHT22;28637;50.554;7.032;2022-08-21T13:20:21;25.50;85.10
43015;DHT22;28637;50.554;7.032;2022-08-21T13:25:27;25.50;85.20
43015;DHT22;28637;50.554;7.032;2022-08-21T13:30:29;25.40;85.30
43015;DHT22;28637;50.554;7.032;2022-08-21T13:35:44;25.40;85.60
43015;DHT22;28637;50.554;7.032;2022-08-21T13:40:51;25.30;85.80
43015;DHT22;28637;50.554;7.032;2022-08-21T13:45:54;25.20;85.90
43015;DHT22;28637;50.554;7.032;2022-08-21T13:50:55;25.30;86.00
43015;DHT22;28637;50.554;7.032;2022-08-21T13:55:57;25.40;86.10
43015;DHT22;28637;50.554;7.032;2022-08-21T14:00:59;25.40;86.10
43015;DHT22;28637;50.554;7.032;2022-08-21T14:06:01;25.40;86.30
43015;DHT22;28637;50.554;7.032;2022-08-21T14:11:04;25.40;86.40
43015;DHT22;28637;50.554;7.032;2022-08-21T14:16:18;25.40;86.40
43015;DHT22;28637;50.554;7.032;2022-08-21T14:21:35;25.40;86.80
43015;DHT22;28637;50.554;7.032;2022-08-21T14:27:24;25.30;86.40
43015;DHT22;28637;50.554;7.032;2022-08-21T14:32:27;25.30;86.20
43015;DHT22;28637;50.554;7.032;2022-08-21T14:37:30;25.20;86.20
43015;DHT22;28637;50.554;7.032;2022-08-21T14:42:31;25.20;86.50
43015;DHT22;28637;50.554;7.032;2022-08-21T14:47:31;25.20;86.80
43015;DHT22;28637;50.554;7.032;2022-08-21T14:52:32;25.20;87.00
43015;DHT22;28637;50.554;7.032;2022-08-21T14:57:33;25.20;87.20
43015;DHT22;28637;50.554;7.032;2022-08-21T15:02:34;25.10;87.20
43015;DHT22;28637;50.554;7.032;2022-08-21T15:07:34;25.10;87.30
43015;DHT22;28637;50.554;7.032;2022-08-21T15:12:35;25.10;87.30
43015;DHT22;28637;50.554;7.032;2022-08-21T15:17:36;25.10;87.50
43015;DHT22;28637;50.554;7.032;2022-08-21T15:22:36;25.10;87.50
43015;DHT22;28637;50.554;7.032;2022-08-21T15:27:37;25.10;87.50
43015;DHT22;28637;50.554;7.032;2022-08-21T15:32:38;25.10;87.70
43015;DHT22;28637;50.554;7.032;2022-08-21T15:37:39;25.10;87.80
43015;DHT22;28637;50.554;7.032;2022-08-21T15:42:41;25.10;88.00
43015;DHT22;28637;50.554;7.032;2022-08-21T15:47:44;25.10;88.30
43015;DHT22;28637;50.554;7.032;2022-08-21T15:52:45;25.10;88.30
43015;DHT22;28637;50.554;7.032;2022-08-21T15:57:48;25.10;88.50
43015;DHT22;28637;50.554;7.032;2022-08-21T16:02:53;25.10;88.70
43015;DHT22;28637;50.554;7.032;2022-08-21T16:07:55;25.10;88.90
43015;DHT22;28637;50.554;7.032;2022-08-21T16:13:00;25.10;88.80
43015;DHT22;28637;50.554;7.032;2022-08-21T16:18:02;25.10;88.90
43015;DHT22;28637;50.554;7.032;2022-08-21T16:23:02;25.10;89.10
43015;DHT22;28637;50.554;7.032;2022-08-21T16:28:06;25.00;89.10
43015;DHT22;28637;50.554;7.032;2022-08-21T16:33:15;25.00;89.30
43015;DHT22;28637;50.554;7.032;2022-08-21T16:38:19;25.00;89.30
43015;DHT22;28637;50.554;7.032;2022-08-21T16:43:25;25.00;89.40
43015;DHT22;28637;50.554;7.032;2022-08-21T16:48:26;25.00;89.40
43015;DHT22;28637;50.554;7.032;2022-08-21T16:53:29;25.00;89.60
43015;DHT22;28637;50.554;7.032;2022-08-21T16:58:35;24.90;89.70
43015;DHT22;28637;50.554;7.032;2022-08-21T17:03:39;24.90;89.70
43015;DHT22;28637;50.554;7.032;2022-08-21T17:08:40;24.90;90.00
43015;DHT22;28637;50.554;7.032;2022-08-21T17:13:41;24.90;90.00
43015;DHT22;28637;50.554;7.032;2022-08-21T17:18:42;24.90;90.00
43015;DHT22;28637;50.554;7.032;2022-08-21T17:23:43;24.90;90.00
43015;DHT22;28637;50.554;7.032;2022-08-21T17:28:44;24.90;90.10
43015;DHT22;28637;50.554;7.032;2022-08-21T17:33:48;24.90;90.00
43015;DHT22;28637;50.554;7.032;2022-08-21T17:38:51;24.90;90.10
43015;DHT22;28637;50.554;7.032;2022-08-21T17:43:52;24.90;90.10
43015;DHT22;28637;50.554;7.032;2022-08-21T17:48:55;24.80;90.20
43015;DHT22;28637;50.554;7.032;2022-08-21T17:53:56;24.80;90.30
43015;DHT22;28637;50.554;7.032;2022-08-21T17:58:57;24.80;90.40
43015;DHT22;28637;50.554;7.032;2022-08-21T18:03:57;24.80;90.40
43015;DHT22;28637;50.554;7.032;2022-08-21T18:08:58;24.70;90.40
43015;DHT22;28637;50.554;7.032;2022-08-21T18:14:01;24.80;90.50
43015;DHT22;28637;50.554;7.032;2022-08-21T18:19:07;24.70;90.50
43015;DHT22;28637;50.554;7.032;2022-08-21T18:24:08;24.70;90.40
43015;DHT22;28637;50.554;7.032;2022-08-21T18:29:13;24.60;90.50
43015;DHT22;28637;50.554;7.032;2022-08-21T18:34:30;24.70;90.50
43015;DHT22;28637;50.554;7.032;2022-08-21T18:39:34;24.60;90.50
43015;DHT22;28637;50.554;7.032;2022-08-21T18:44:35;24.60;90.60
43015;DHT22;28637;50.554;7.032;2022-08-21T18:49:36;24.60;90.60
43015;DHT22;28637;50.554;7.032;2022-08-21T18:54:37;24.60;90.70
43015;DHT22;28637;50.554;7.032;2022-08-21T18:59:38;24.50;90.70
43015;DHT22;28637;50.554;7.032;2022-08-21T19:04:39;24.50;90.80
43015;DHT22;28637;50.554;7.032;2022-08-21T19:09:41;24.50;90.90
43015;DHT22;28637;50.554;7.032;2022-08-21T19:14:42;24.50;90.90
43015;DHT22;28637;50.554;7.032;2022-08-21T19:19:43;24.50;90.90
43015;DHT22;28637;50.554;7.032;2022-08-21T19:24:43;24.50;90.90
43015;DHT22;28637;50.554;7.032;2022-08-21T19:29:44;24.50;91.00
43015;DHT22;28637;50.554;7.032;2022-08-21T19:34:45;24.50;91.00
43015;DHT22;28637;50.554;7.032;2022-08-21T19:39:46;24.50;91.00
43015;DHT22;28637;50.554;7.032;2022-08-21T19:44:46;24.50;91.00
43015;DHT22;28637;50.554;7.032;2022-08-21T19:49:51;24.50;91.10
43015;DHT22;28637;50.554;7.032;2022-08-21T19:54:53;24.50;91.10
43015;DHT22;28637;50.554;7.032;2022-08-21T19:59:54;24.50;91.10
43015;DHT22;28637;50.554;7.032;2022-08-21T20:04:55;24.50;91.10
43015;DHT22;28637;50.554;7.032;2022-08-21T20:09:55;24.50;91.10
43015;DHT22;28637;50.554;7.032;2022-08-21T20:14:57;24.50;91.20
43015;DHT22;28637;50.554;7.032;2022-08-21T20:19:57;24.50;91.30
43015;DHT22;28637;50.554;7.032;2022-08-21T20:24:58;24.60;91.60
43015;DHT22;28637;50.554;7.032;2022-08-21T20:29:59;24.60;91.70
43015;DHT22;28637;50.554;7.032;2022-08-21T20:34:59;24.70;91.80
